sensor_id;sensor_type;location;lat;lon;timestamp;P1;durP1;ratioP1;P2;durP2;ratioP2
24650;SDS011;12783;48.824;8.662;2022-11-20T00:00:16;7.65;;;3.42;;
24650;SDS011;12783;48.824;8.662;2022-11-20T00:02:43;8.15;;;4.20;;
24650;SDS011;12783;48.824;8.662;2022-11-20T00:05:10;8.07;;;4.10;;
24650;SDS011;12783;48.824;8.662;2022-11-20T00:07:37;6.25;;;4.10;;
24650;SDS011;12783;48.824;8.662;2022-11-20T00:10:04;9.27;;;4.30;;
24650;SDS011;12783;48.824;8.662;2022-11-20T00:12:31;6.35;;;3.70;;
24650;SDS011;12783;48.824;8.662;2022-11-20T00:14:57;6.85;;;3.83;;
24650;SDS011;12783;48.824;8.662;2022-11-20T00:17:24;5.78;;;3.60;;
24650;SDS011;12783;48.824;8.662;2022-11-20T00:19:51;9.60;;;3.45;;
24650;SDS011;12783;48.824;8.662;2022-11-20T00:22:18;10.23;;;3.72;;
24650;SDS011;12783;48.824;8.662;2022-11-20T00:24:44;7.65;;;3.40;;
24650;SDS011;12783;48.824;8.662;2022-11-20T00:27:11;6.55;;;3.40;;
24650;SDS011;12783;48.824;8.662;2022-11-20T00:29:38;5.07;;;3.40;;
24650;SDS011;12783;48.824;8.662;2022-11-20T00:32:05;3.78;;;3.03;;
24650;SDS011;12783;48.824;8.662;2022-11-20T00:34:31;8.25;;;3.35;;
24650;SDS011;12783;48.824;8.662;2022-11-20T00:36:58;5.68;;;3.50;;
24650;SDS011;12783;48.824;8.662;2022-11-20T00:39:25;7.35;;;3.75;;
24650;SDS011;12783;48.824;8.662;2022-11-20T00:41:51;5.13;;;3.67;;
24650;SDS011;12783;48.824;8.662;2022-11-20T00:44:18;6.85;;;3.17;;
24650;SDS011;12783;48.824;8.662;2022-11-20T00:46:45;5.45;;;3.50;;
24650;SDS011;12783;48.824;8.662;2022-11-20T00:49:11;4.80;;;3.42;;
24650;SDS011;12783;48.824;8.662;2022-11-20T00:51:38;6.32;;;3.33;;
24650;SDS011;12783;48.824;8.662;2022-11-20T00:54:05;7.25;;;3.78;;
24650;SDS011;12783;48.824;8.662;2022-11-20T00:56:32;5.70;;;3.40;;
24650;SDS011;12783;48.824;8.662;2022-11-20T00:58:59;5.32;;;3.40;;
24650;SDS011;12783;48.824;8.662;2022-11-20T01:01:27;5.35;;;3.60;;
24650;SDS011;12783;48.824;8.662;2022-11-20T01:03:56;4.80;;;3.33;;
24650;SDS011;12783;48.824;8.662;2022-11-20T01:06:25;4.50;;;3.47;;
24650;SDS011;12783;48.824;8.662;2022-11-20T01:08:55;5.00;;;3.50;;
24650;SDS011;12783;48.824;8.662;2022-11-20T01:11:24;8.13;;;3.70;;
24650;SDS011;12783;48.824;8.662;2022-11-20T01:13:55;4.65;;;3.10;;
24650;SDS011;12783;48.824;8.662;2022-11-20T01:16:30;4.88;;;3.28;;
24650;SDS011;12783;48.824;8.662;2022-11-20T01:18:59;4.95;;;3.05;;
24650;SDS011;12783;48.824;8.662;2022-11-20T01:21:28;4.40;;;3.45;;
24650;SDS011;12783;48.824;8.662;2022-11-20T01:23:56;7.57;;;3.55;;
24650;SDS011;12783;48.824;8.662;2022-11-20T01:26:24;5.57;;;3.70;;
24650;SDS011;12783;48.824;8.662;2022-11-20T01:28:53;8.50;;;3.65;;
24650;SDS011;12783;48.824;8.662;2022-11-20T01:31:20;8.07;;;3.75;;
24650;SDS011;12783;48.824;8.662;2022-11-20T01:33:52;7.63;;;3.65;;
24650;SDS011;12783;48.824;8.662;2022-11-20T01:36:21;6.97;;;3.55;;
24650;SDS011;12783;48.824;8.662;2022-11-20T01:38:52;6.55;;;3.72;;
24650;SDS011;12783;48.824;8.662;2022-11-20T01:41:20;8.18;;;3.90;;
24650;SDS011;12783;48.824;8.662;2022-11-20T01:44:06;6.05;;;4.32;;
24650;SDS011;12783;48.824;8.662;2022-11-20T01:46:33;6.78;;;3.97;;
24650;SDS011;12783;48.824;8.662;2022-11-20T01:51:33;7.03;;;4.05;;
24650;SDS011;12783;48.824;8.662;2022-11-20T01:54:05;7.00;;;4.05;;
24650;SDS011;12783;48.824;8.662;2022-11-20T01:56:36;7.20;;;3.80;;
24650;SDS011;12783;48.824;8.662;2022-11-20T01:59:05;6.97;;;4.03;;
24650;SDS011;12783;48.824;8.662;2022-11-20T02:01:33;6.63;;;4.13;;
24650;SDS011;12783;48.824;8.662;2022-11-20T02:04:00;7.43;;;3.97;;
24650;SDS011;12783;48.824;8.662;2022-11-20T02:07:13;6.22;;;3.95;;
24650;SDS011;12783;48.824;8.662;2022-11-20T02:09:19;10.32;;;4.03;;
24650;SDS011;12783;48.824;8.662;2022-11-20T02:11:46;9.35;;;4.25;;
24650;SDS011;12783;48.824;8.662;2022-11-20T02:14:13;6.90;;;4.45;;
24650;SDS011;12783;48.824;8.662;2022-11-20T02:16:43;8.35;;;4.35;;
24650;SDS011;12783;48.824;8.662;2022-11-20T02:19:23;6.90;;;4.10;;
24650;SDS011;12783;48.824;8.662;2022-11-20T02:24:27;8.45;;;4.53;;
24650;SDS011;12783;48.824;8.662;2022-11-20T02:27:02;10.40;;;3.97;;
24650;SDS011;12783;48.824;8.662;2022-11-20T02:32:24;6.35;;;4.45;;
24650;SDS011;12783;48.824;8.662;2022-11-20T02:34:52;9.45;;;4.57;;
24650;SDS011;12783;48.824;8.662;2022-11-20T02:37:20;7.20;;;4.18;;
24650;SDS011;12783;48.824;8.662;2022-11-20T02:39:47;8.75;;;4.60;;
24650;SDS011;12783;48.824;8.662;2022-11-20T02:42:16;7.97;;;4.53;;
24650;SDS011;12783;48.824;8.662;2022-11-20T02:44:43;6.35;;;4.47;;
24650;SDS011;12783;48.824;8.662;2022-11-20T02:47:10;6.03;;;4.05;;
24650;SDS011;12783;48.824;8.662;2022-11-20T02:49:36;6.45;;;4.20;;
24650;SDS011;12783;48.824;8.662;2022-11-20T02:52:03;5.35;;;4.10;;
24650;SDS011;12783;48.824;8.662;2022-11-20T02:54:30;5.97;;;4.00;;
24650;SDS011;12783;48.824;8.662;2022-11-20T02:56:57;6.20;;;4.18;;
24650;SDS011;12783;48.824;8.662;2022-11-20T02:59:24;7.07;;;4.07;;
24650;SDS011;12783;48.824;8.662;2022-11-20T03:01:50;5.88;;;4.00;;
24650;SDS011;12783;48.824;8.662;2022-11-20T03:04:17;9.55;;;4.20;;
24650;SDS011;12783;48.824;8.662;2022-11-20T03:06:44;6.20;;;3.88;;
24650;SDS011;12783;48.824;8.662;2022-11-20T03:09:11;8.43;;;3.10;;
24650;SDS011;12783;48.824;8.662;2022-11-20T03:11:38;7.63;;;3.75;;
24650;SDS011;12783;48.824;8.662;2022-11-20T03:14:05;4.45;;;3.40;;
24650;SDS011;12783;48.824;8.662;2022-11-20T03:16:32;4.95;;;3.72;;
24650;SDS011;12783;48.824;8.662;2022-11-20T03:18:59;7.13;;;3.80;;
24650;SDS011;12783;48.824;8.662;2022-11-20T03:21:26;4.95;;;3.15;;
24650;SDS011;12783;48.824;8.662;2022-11-20T03:23:53;4.57;;;3.40;;
24650;SDS011;12783;48.824;8.662;2022-11-20T03:26:21;6.97;;;3.53;;
24650;SDS011;12783;48.824;8.662;2022-11-20T03:28:50;5.40;;;3.63;;
24650;SDS011;12783;48.824;8.662;2022-11-20T03:31:23;5.85;;;3.28;;
24650;SDS011;12783;48.824;8.662;2022-11-20T03:33:51;4.75;;;3.70;;
24650;SDS011;12783;48.824;8.662;2022-11-20T03:36:18;4.80;;;3.40;;
24650;SDS011;12783;48.824;8.662;2022-11-20T03:38:46;5.25;;;3.25;;
24650;SDS011;12783;48.824;8.662;2022-11-20T03:41:14;5.72;;;3.33;;
24650;SDS011;12783;48.824;8.662;2022-11-20T03:43:46;6.15;;;3.40;;
24650;SDS011;12783;48.824;8.662;2022-11-20T03:46:26;5.82;;;3.60;;
24650;SDS011;12783;48.824;8.662;2022-11-20T03:48:53;5.13;;;3.17;;
24650;SDS011;12783;48.824;8.662;2022-11-20T03:51:24;6.15;;;3.28;;
24650;SDS011;12783;48.824;8.662;2022-11-20T03:53:56;4.55;;;3.03;;
24650;SDS011;12783;48.824;8.662;2022-11-20T03:56:25;3.72;;;2.97;;
24650;SDS011;12783;48.824;8.662;2022-11-20T03:58:54;4.10;;;2.92;;
24650;SDS011;12783;48.824;8.662;2022-11-20T04:01:21;4.10;;;2.85;;
24650;SDS011;12783;48.824;8.662;2022-11-20T04:03:51;4.82;;;3.30;;
24650;SDS011;12783;48.824;8.662;2022-11-20T04:06:29;6.35;;;3.42;;
24650;SDS011;12783;48.824;8.662;2022-11-20T04:08:59;5.20;;;3.00;;
24650;SDS011;12783;48.824;8.662;2022-11-20T04:11:30;3.45;;;2.83;;
24650;SDS011;12783;48.824;8.662;2022-11-20T04:13:58;5.07;;;3.47;;
24650;SDS011;12783;48.824;8.662;2022-11-20T04:16:28;4.32;;;3.00;;
24650;SDS011;12783;48.824;8.662;2022-11-20T04:18:57;3.88;;;3.03;;
24650;SDS011;12783;48.824;8.662;2022-11-20T04:21:25;4.75;;;3.20;;
24650;SDS011;12783;48.824;8.662;2022-11-20T04:23:52;11.63;;;3.38;;
24650;SDS011;12783;48.824;8.662;2022-11-20T04:26:20;4.28;;;3.17;;
24650;SDS011;12783;48.824;8.662;2022-11-20T04:28:48;4.20;;;2.85;;
24650;SDS011;12783;48.824;8.662;2022-11-20T04:31:17;3.88;;;2.88;;
24650;SDS011;12783;48.824;8.662;2022-11-20T04:33:45;5.53;;;2.90;;
24650;SDS011;12783;48.824;8.662;2022-11-20T04:36:13;3.38;;;2.50;;
24650;SDS011;12783;48.824;8.662;2022-11-20T04:38:44;6.75;;;3.13;;
24650;SDS011;12783;48.824;8.662;2022-11-20T04:41:14;3.60;;;2.47;;
24650;SDS011;12783;48.824;8.662;2022-11-20T04:43:45;5.07;;;2.90;;
24650;SDS011;12783;48.824;8.662;2022-11-20T04:46:15;5.70;;;2.90;;
24650;SDS011;12783;48.824;8.662;2022-11-20T04:48:42;3.47;;;2.50;;
24650;SDS011;12783;48.824;8.662;2022-11-20T04:51:09;6.85;;;3.03;;
24650;SDS011;12783;48.824;8.662;2022-11-20T04:53:35;2.92;;;2.63;;
24650;SDS011;12783;48.824;8.662;2022-11-20T04:56:04;6.20;;;3.10;;
24650;SDS011;12783;48.824;8.662;2022-11-20T04:58:32;5.00;;;2.75;;
24650;SDS011;12783;48.824;8.662;2022-11-20T05:01:00;8.75;;;2.85;;
24650;SDS011;12783;48.824;8.662;2022-11-20T05:03:35;4.07;;;2.50;;
24650;SDS011;12783;48.824;8.662;2022-11-20T05:06:07;5.90;;;2.50;;
24650;SDS011;12783;48.824;8.662;2022-11-20T05:08:35;3.45;;;2.40;;
24650;SDS011;12783;48.824;8.662;2022-11-20T05:11:03;3.20;;;2.10;;
24650;SDS011;12783;48.824;8.662;2022-11-20T05:13:31;3.42;;;2.10;;
24650;SDS011;12783;48.824;8.662;2022-11-20T05:16:05;2.88;;;2.13;;
24650;SDS011;12783;48.824;8.662;2022-11-20T05:18:34;3.08;;;2.22;;
24650;SDS011;12783;48.824;8.662;2022-11-20T05:21:01;4.47;;;1.85;;
24650;SDS011;12783;48.824;8.662;2022-11-20T05:23:29;2.15;;;1.73;;
24650;SDS011;12783;48.824;8.662;2022-11-20T05:25:56;2.47;;;1.80;;
24650;SDS011;12783;48.824;8.662;2022-11-20T05:28:25;2.72;;;1.60;;
24650;SDS011;12783;48.824;8.662;2022-11-20T05:30:52;2.72;;;1.60;;
24650;SDS011;12783;48.824;8.662;2022-11-20T05:33:19;2.20;;;1.65;;
24650;SDS011;12783;48.824;8.662;2022-11-20T05:35:47;2.88;;;1.70;;
24650;SDS011;12783;48.824;8.662;2022-11-20T05:38:14;1.60;;;1.50;;
24650;SDS011;12783;48.824;8.662;2022-11-20T05:40:41;1.50;;;1.40;;
24650;SDS011;12783;48.824;8.662;2022-11-20T05:43:08;3.30;;;1.48;;
24650;SDS011;12783;48.824;8.662;2022-11-20T05:45:35;3.10;;;1.73;;
24650;SDS011;12783;48.824;8.662;2022-11-20T05:48:02;2.50;;;1.65;;
24650;SDS011;12783;48.824;8.662;2022-11-20T05:50:29;2.83;;;1.90;;
24650;SDS011;12783;48.824;8.662;2022-11-20T05:52:59;4.25;;;1.75;;
24650;SDS011;12783;48.824;8.662;2022-11-20T05:55:26;2.40;;;1.73;;
24650;SDS011;12783;48.824;8.662;2022-11-20T05:57:53;1.80;;;1.63;;
24650;SDS011;12783;48.824;8.662;2022-11-20T06:00:21;2.00;;;1.40;;
24650;SDS011;12783;48.824;8.662;2022-11-20T06:02:48;1.73;;;1.35;;
24650;SDS011;12783;48.824;8.662;2022-11-20T06:05:15;4.30;;;1.55;;
24650;SDS011;12783;48.824;8.662;2022-11-20T06:07:42;2.35;;;1.40;;
24650;SDS011;12783;48.824;8.662;2022-11-20T06:10:09;2.63;;;1.50;;
24650;SDS011;12783;48.824;8.662;2022-11-20T06:12:36;1.85;;;1.30;;
24650;SDS011;12783;48.824;8.662;2022-11-20T06:15:04;1.85;;;1.27;;
24650;SDS011;12783;48.824;8.662;2022-11-20T06:17:31;4.20;;;1.30;;
24650;SDS011;12783;48.824;8.662;2022-11-20T06:19:58;3.42;;;1.30;;
24650;SDS011;12783;48.824;8.662;2022-11-20T06:22:25;3.75;;;1.30;;
24650;SDS011;12783;48.824;8.662;2022-11-20T06:24:51;1.85;;;1.33;;
24650;SDS011;12783;48.824;8.662;2022-11-20T06:27:18;2.38;;;1.20;;
24650;SDS011;12783;48.824;8.662;2022-11-20T06:29:45;1.55;;;1.30;;
24650;SDS011;12783;48.824;8.662;2022-11-20T06:32:12;3.10;;;1.33;;
24650;SDS011;12783;48.824;8.662;2022-11-20T06:34:38;2.90;;;1.40;;
24650;SDS011;12783;48.824;8.662;2022-11-20T06:37:05;2.50;;;1.30;;
24650;SDS011;12783;48.824;8.662;2022-11-20T06:39:32;2.45;;;1.52;;
24650;SDS011;12783;48.824;8.662;2022-11-20T06:41:58;1.58;;;1.23;;
24650;SDS011;12783;48.824;8.662;2022-11-20T06:44:25;1.73;;;1.50;;
24650;SDS011;12783;48.824;8.662;2022-11-20T06:46:52;2.10;;;1.60;;
24650;SDS011;12783;48.824;8.662;2022-11-20T06:49:19;2.30;;;1.45;;
24650;SDS011;12783;48.824;8.662;2022-11-20T06:51:46;2.67;;;1.63;;
24650;SDS011;12783;48.824;8.662;2022-11-20T06:54:13;3.05;;;1.27;;
24650;SDS011;12783;48.824;8.662;2022-11-20T06:56:40;1.92;;;1.20;;
24650;SDS011;12783;48.824;8.662;2022-11-20T06:59:07;2.00;;;1.20;;
24650;SDS011;12783;48.824;8.662;2022-11-20T07:01:33;1.40;;;1.30;;
24650;SDS011;12783;48.824;8.662;2022-11-20T07:04:01;1.83;;;1.50;;
24650;SDS011;12783;48.824;8.662;2022-11-20T07:06:29;1.38;;;1.27;;
24650;SDS011;12783;48.824;8.662;2022-11-20T07:08:56;2.33;;;1.35;;
24650;SDS011;12783;48.824;8.662;2022-11-20T07:11:23;1.33;;;1.20;;
24650;SDS011;12783;48.824;8.662;2022-11-20T07:13:50;1.77;;;1.30;;
24650;SDS011;12783;48.824;8.662;2022-11-20T07:16:16;1.75;;;1.42;;
24650;SDS011;12783;48.824;8.662;2022-11-20T07:18:43;1.48;;;1.30;;
24650;SDS011;12783;48.824;8.662;2022-11-20T07:21:16;2.67;;;1.40;;
24650;SDS011;12783;48.824;8.662;2022-11-20T07:23:42;1.30;;;1.20;;
24650;SDS011;12783;48.824;8.662;2022-11-20T07:26:10;1.50;;;0.95;;
24650;SDS011;12783;48.824;8.662;2022-11-20T07:28:37;1.33;;;0.80;;
24650;SDS011;12783;48.824;8.662;2022-11-20T07:31:04;2.47;;;0.82;;
24650;SDS011;12783;48.824;8.662;2022-11-20T07:33:33;0.93;;;0.75;;
24650;SDS011;12783;48.824;8.662;2022-11-20T07:35:59;2.25;;;0.77;;
24650;SDS011;12783;48.824;8.662;2022-11-20T07:38:27;0.88;;;0.70;;
24650;SDS011;12783;48.824;8.662;2022-11-20T07:40:54;1.33;;;1.23;;
24650;SDS011;12783;48.824;8.662;2022-11-20T07:43:22;0.95;;;0.80;;
24650;SDS011;12783;48.824;8.662;2022-11-20T07:45:49;2.17;;;1.38;;
24650;SDS011;12783;48.824;8.662;2022-11-20T07:48:16;1.20;;;1.10;;
24650;SDS011;12783;48.824;8.662;2022-11-20T07:50:43;0.63;;;0.63;;
24650;SDS011;12783;48.824;8.662;2022-11-20T07:53:09;3.50;;;1.60;;
24650;SDS011;12783;48.824;8.662;2022-11-20T07:55:36;1.33;;;1.13;;
24650;SDS011;12783;48.824;8.662;2022-11-20T07:58:03;2.75;;;2.05;;
24650;SDS011;12783;48.824;8.662;2022-11-20T08:00:30;2.30;;;1.45;;
24650;SDS011;12783;48.824;8.662;2022-11-20T08:02:56;1.70;;;1.30;;
24650;SDS011;12783;48.824;8.662;2022-11-20T08:05:23;1.33;;;1.23;;
24650;SDS011;12783;48.824;8.662;2022-11-20T08:07:51;1.20;;;1.10;;
24650;SDS011;12783;48.824;8.662;2022-11-20T08:10:17;1.90;;;1.20;;
24650;SDS011;12783;48.824;8.662;2022-11-20T08:12:45;2.20;;;1.30;;
24650;SDS011;12783;48.824;8.662;2022-11-20T08:15:31;1.48;;;1.10;;
24650;SDS011;12783;48.824;8.662;2022-11-20T08:17:59;1.20;;;1.10;;
24650;SDS011;12783;48.824;8.662;2022-11-20T08:20:52;1.30;;;1.20;;
24650;SDS011;12783;48.824;8.662;2022-11-20T08:23:19;4.88;;;1.40;;
24650;SDS011;12783;48.824;8.662;2022-11-20T08:25:48;3.63;;;1.45;;
24650;SDS011;12783;48.824;8.662;2022-11-20T08:28:16;1.85;;;1.40;;
24650;SDS011;12783;48.824;8.662;2022-11-20T08:30:47;1.55;;;1.35;;
24650;SDS011;12783;48.824;8.662;2022-11-20T08:33:13;2.75;;;1.10;;
24650;SDS011;12783;48.824;8.662;2022-11-20T08:35:40;1.40;;;1.20;;
24650;SDS011;12783;48.824;8.662;2022-11-20T08:38:08;1.75;;;1.20;;
24650;SDS011;12783;48.824;8.662;2022-11-20T08:40:34;3.88;;;1.60;;
24650;SDS011;12783;48.824;8.662;2022-11-20T08:43:01;1.98;;;1.50;;
24650;SDS011;12783;48.824;8.662;2022-11-20T08:45:28;1.98;;;1.70;;
24650;SDS011;12783;48.824;8.662;2022-11-20T08:48:00;1.58;;;1.48;;
24650;SDS011;12783;48.824;8.662;2022-11-20T08:50:27;1.30;;;1.20;;
24650;SDS011;12783;48.824;8.662;2022-11-20T08:52:54;1.10;;;1.00;;
24650;SDS011;12783;48.824;8.662;2022-11-20T08:55:21;1.50;;;1.40;;
24650;SDS011;12783;48.824;8.662;2022-11-20T08:57:48;2.88;;;1.80;;
24650;SDS011;12783;48.824;8.662;2022-11-20T09:00:16;3.83;;;2.40;;
24650;SDS011;12783;48.824;8.662;2022-11-20T09:02:43;3.83;;;2.55;;
24650;SDS011;12783;48.824;8.662;2022-11-20T09:05:10;5.55;;;3.75;;
24650;SDS011;12783;48.824;8.662;2022-11-20T09:07:36;6.22;;;3.88;;
24650;SDS011;12783;48.824;8.662;2022-11-20T09:10:03;6.18;;;4.15;;
24650;SDS011;12783;48.824;8.662;2022-11-20T09:12:51;12.98;;;5.22;;
24650;SDS011;12783;48.824;8.662;2022-11-20T09:15:19;8.60;;;4.72;;
24650;SDS011;12783;48.824;8.662;2022-11-20T09:17:55;4.47;;;3.72;;
24650;SDS011;12783;48.824;8.662;2022-11-20T09:20:24;7.63;;;3.92;;
24650;SDS011;12783;48.824;8.662;2022-11-20T09:22:51;6.63;;;4.13;;
24650;SDS011;12783;48.824;8.662;2022-11-20T09:25:18;13.10;;;7.57;;
24650;SDS011;12783;48.824;8.662;2022-11-20T09:27:45;12.50;;;6.93;;
24650;SDS011;12783;48.824;8.662;2022-11-20T09:30:13;7.65;;;4.40;;
24650;SDS011;12783;48.824;8.662;2022-11-20T09:32:40;6.60;;;3.97;;
24650;SDS011;12783;48.824;8.662;2022-11-20T09:35:08;3.28;;;2.78;;
24650;SDS011;12783;48.824;8.662;2022-11-20T09:37:35;4.05;;;3.22;;
24650;SDS011;12783;48.824;8.662;2022-11-20T09:40:02;3.72;;;2.42;;
24650;SDS011;12783;48.824;8.662;2022-11-20T09:42:34;2.97;;;2.28;;
24650;SDS011;12783;48.824;8.662;2022-11-20T09:45:24;10.68;;;3.42;;
24650;SDS011;12783;48.824;8.662;2022-11-20T09:48:15;5.47;;;2.42;;
24650;SDS011;12783;48.824;8.662;2022-11-20T09:56:16;4.45;;;3.25;;
24650;SDS011;12783;48.824;8.662;2022-11-20T09:58:49;26.10;;;10.85;;
24650;SDS011;12783;48.824;8.662;2022-11-20T10:01:18;15.18;;;5.55;;
24650;SDS011;12783;48.824;8.662;2022-11-20T10:06:28;18.35;;;8.00;;
24650;SDS011;12783;48.824;8.662;2022-11-20T10:09:04;10.50;;;6.40;;
24650;SDS011;12783;48.824;8.662;2022-11-20T10:11:43;11.88;;;6.70;;
24650;SDS011;12783;48.824;8.662;2022-11-20T10:20:29;37.15;;;16.58;;
24650;SDS011;12783;48.824;8.662;2022-11-20T10:22:56;17.02;;;9.10;;
24650;SDS011;12783;48.824;8.662;2022-11-20T10:31:33;14.93;;;5.85;;
24650;SDS011;12783;48.824;8.662;2022-11-20T10:39:33;10.77;;;5.32;;
24650;SDS011;12783;48.824;8.662;2022-11-20T10:42:04;7.57;;;4.40;;
24650;SDS011;12783;48.824;8.662;2022-11-20T10:44:35;14.05;;;3.63;;
24650;SDS011;12783;48.824;8.662;2022-11-20T10:47:22;6.63;;;3.55;;
24650;SDS011;12783;48.824;8.662;2022-11-20T10:49:52;5.85;;;3.40;;
24650;SDS011;12783;48.824;8.662;2022-11-20T10:52:23;8.50;;;3.60;;
24650;SDS011;12783;48.824;8.662;2022-11-20T10:54:58;8.07;;;2.88;;
24650;SDS011;12783;48.824;8.662;2022-11-20T10:57:52;9.98;;;3.53;;
24650;SDS011;12783;48.824;8.662;2022-11-20T11:00:22;6.13;;;2.90;;
24650;SDS011;12783;48.824;8.662;2022-11-20T11:02:50;9.00;;;2.92;;
24650;SDS011;12783;48.824;8.662;2022-11-20T11:08:04;5.07;;;3.08;;
24650;SDS011;12783;48.824;8.662;2022-11-20T11:10:51;5.65;;;2.83;;
24650;SDS011;12783;48.824;8.662;2022-11-20T11:13:25;5.70;;;3.15;;
24650;SDS011;12783;48.824;8.662;2022-11-20T11:15:53;6.30;;;2.72;;
24650;SDS011;12783;48.824;8.662;2022-11-20T11:18:28;6.32;;;3.00;;
24650;SDS011;12783;48.824;8.662;2022-11-20T11:20:57;4.88;;;2.80;;
24650;SDS011;12783;48.824;8.662;2022-11-20T11:23:42;7.78;;;2.95;;
24650;SDS011;12783;48.824;8.662;2022-11-20T11:26:19;5.65;;;3.00;;
24650;SDS011;12783;48.824;8.662;2022-11-20T11:28:54;4.13;;;2.25;;
24650;SDS011;12783;48.824;8.662;2022-11-20T11:31:30;9.60;;;3.03;;
24650;SDS011;12783;48.824;8.662;2022-11-20T11:34:12;5.13;;;2.10;;
24650;SDS011;12783;48.824;8.662;2022-11-20T11:36:40;6.63;;;2.30;;
24650;SDS011;12783;48.824;8.662;2022-11-20T11:39:12;7.47;;;2.30;;
24650;SDS011;12783;48.824;8.662;2022-11-20T11:41:41;8.57;;;2.22;;
24650;SDS011;12783;48.824;8.662;2022-11-20T11:44:18;7.18;;;2.33;;
24650;SDS011;12783;48.824;8.662;2022-11-20T11:47:08;6.00;;;2.10;;
24650;SDS011;12783;48.824;8.662;2022-11-20T11:49:37;8.00;;;1.98;;
24650;SDS011;12783;48.824;8.662;2022-11-20T11:52:05;5.30;;;2.53;;
24650;SDS011;12783;48.824;8.662;2022-11-20T11:54:57;3.45;;;1.85;;
24650;SDS011;12783;48.824;8.662;2022-11-20T12:05:15;4.88;;;1.90;;
24650;SDS011;12783;48.824;8.662;2022-11-20T12:08:02;6.40;;;1.83;;
24650;SDS011;12783;48.824;8.662;2022-11-20T12:16:00;2.78;;;1.90;;
24650;SDS011;12783;48.824;8.662;2022-11-20T12:18:28;6.82;;;1.95;;
24650;SDS011;12783;48.824;8.662;2022-11-20T12:43:54;4.35;;;1.55;;
24650;SDS011;12783;48.824;8.662;2022-11-20T12:46:51;2.03;;;1.05;;
24650;SDS011;12783;48.824;8.662;2022-11-20T12:52:44;2.10;;;1.40;;
24650;SDS011;12783;48.824;8.662;2022-11-20T12:57:53;3.10;;;1.20;;
24650;SDS011;12783;48.824;8.662;2022-11-20T13:00:21;3.22;;;1.27;;
24650;SDS011;12783;48.824;8.662;2022-11-20T13:02:56;3.22;;;1.20;;
24650;SDS011;12783;48.824;8.662;2022-11-20T13:05:36;1.75;;;1.20;;
24650;SDS011;12783;48.824;8.662;2022-11-20T13:08:22;6.38;;;1.35;;
24650;SDS011;12783;48.824;8.662;2022-11-20T13:10:56;9.02;;;1.73;;
24650;SDS011;12783;48.824;8.662;2022-11-20T13:13:35;1.60;;;1.33;;
24650;SDS011;12783;48.824;8.662;2022-11-20T13:16:19;6.07;;;1.30;;
24650;SDS011;12783;48.824;8.662;2022-11-20T13:19:02;4.30;;;1.08;;
24650;SDS011;12783;48.824;8.662;2022-11-20T13:21:35;6.70;;;1.30;;
24650;SDS011;12783;48.824;8.662;2022-11-20T13:24:21;5.88;;;1.10;;
24650;SDS011;12783;48.824;8.662;2022-11-20T13:27:00;2.75;;;1.20;;
24650;SDS011;12783;48.824;8.662;2022-11-20T13:29:43;12.18;;;1.55;;
24650;SDS011;12783;48.824;8.662;2022-11-20T13:32:18;6.10;;;1.50;;
24650;SDS011;12783;48.824;8.662;2022-11-20T13:34:56;2.55;;;1.40;;
24650;SDS011;12783;48.824;8.662;2022-11-20T13:37:35;3.75;;;1.30;;
24650;SDS011;12783;48.824;8.662;2022-11-20T13:40:12;3.22;;;1.13;;
24650;SDS011;12783;48.824;8.662;2022-11-20T13:42:46;2.72;;;1.17;;
24650;SDS011;12783;48.824;8.662;2022-11-20T13:45:25;5.05;;;1.33;;
24650;SDS011;12783;48.824;8.662;2022-11-20T13:47:54;6.78;;;1.50;;
24650;SDS011;12783;48.824;8.662;2022-11-20T13:50:36;5.13;;;1.60;;
24650;SDS011;12783;48.824;8.662;2022-11-20T13:53:13;4.78;;;2.42;;
24650;SDS011;12783;48.824;8.662;2022-11-20T13:55:54;5.22;;;2.30;;
24650;SDS011;12783;48.824;8.662;2022-11-20T14:01:17;2.08;;;1.20;;
24650;SDS011;12783;48.824;8.662;2022-11-20T14:03:47;2.95;;;1.13;;
24650;SDS011;12783;48.824;8.662;2022-11-20T14:06:33;4.05;;;1.27;;
24650;SDS011;12783;48.824;8.662;2022-11-20T14:11:55;2.42;;;1.27;;
24650;SDS011;12783;48.824;8.662;2022-11-20T14:14:24;2.70;;;1.10;;
24650;SDS011;12783;48.824;8.662;2022-11-20T14:17:06;3.28;;;1.23;;
24650;SDS011;12783;48.824;8.662;2022-11-20T14:19:33;4.88;;;1.40;;
24650;SDS011;12783;48.824;8.662;2022-11-20T14:22:09;2.88;;;1.35;;
24650;SDS011;12783;48.824;8.662;2022-11-20T14:24:43;3.25;;;1.70;;
24650;SDS011;12783;48.824;8.662;2022-11-20T14:27:14;3.85;;;1.20;;
24650;SDS011;12783;48.824;8.662;2022-11-20T14:29:46;4.57;;;1.80;;
24650;SDS011;12783;48.824;8.662;2022-11-20T14:32:15;2.17;;;1.20;;
24650;SDS011;12783;48.824;8.662;2022-11-20T14:34:44;1.30;;;1.05;;
24650;SDS011;12783;48.824;8.662;2022-11-20T14:37:13;2.17;;;1.05;;
24650;SDS011;12783;48.824;8.662;2022-11-20T14:39:49;2.42;;;1.20;;
24650;SDS011;12783;48.824;8.662;2022-11-20T14:42:21;4.07;;;1.67;;
24650;SDS011;12783;48.824;8.662;2022-11-20T14:44:50;3.42;;;1.40;;
24650;SDS011;12783;48.824;8.662;2022-11-20T14:47:27;2.13;;;1.35;;
24650;SDS011;12783;48.824;8.662;2022-11-20T14:49:56;4.60;;;1.08;;
24650;SDS011;12783;48.824;8.662;2022-11-20T14:52:24;5.18;;;1.48;;
24650;SDS011;12783;48.824;8.662;2022-11-20T14:54:53;11.77;;;1.48;;
24650;SDS011;12783;48.824;8.662;2022-11-20T15:00:02;4.47;;;0.95;;
24650;SDS011;12783;48.824;8.662;2022-11-20T15:02:34;4.95;;;1.10;;
24650;SDS011;12783;48.824;8.662;2022-11-20T15:05:04;2.92;;;1.40;;
24650;SDS011;12783;48.824;8.662;2022-11-20T15:07:32;2.53;;;1.20;;
24650;SDS011;12783;48.824;8.662;2022-11-20T15:10:02;2.92;;;1.10;;
24650;SDS011;12783;48.824;8.662;2022-11-20T15:12:34;4.05;;;1.02;;
24650;SDS011;12783;48.824;8.662;2022-11-20T15:15:03;3.15;;;1.30;;
24650;SDS011;12783;48.824;8.662;2022-11-20T15:17:32;2.55;;;1.30;;
24650;SDS011;12783;48.824;8.662;2022-11-20T15:20:00;1.83;;;1.27;;
24650;SDS011;12783;48.824;8.662;2022-11-20T15:22:28;4.88;;;2.53;;
24650;SDS011;12783;48.824;8.662;2022-11-20T15:24:55;5.13;;;1.95;;
24650;SDS011;12783;48.824;8.662;2022-11-20T15:27:22;3.35;;;1.85;;
24650;SDS011;12783;48.824;8.662;2022-11-20T15:29:49;4.50;;;1.52;;
24650;SDS011;12783;48.824;8.662;2022-11-20T15:32:16;4.60;;;1.40;;
24650;SDS011;12783;48.824;8.662;2022-11-20T15:34:43;3.10;;;1.20;;
24650;SDS011;12783;48.824;8.662;2022-11-20T15:37:09;4.00;;;1.48;;
24650;SDS011;12783;48.824;8.662;2022-11-20T15:39:36;3.30;;;1.50;;
24650;SDS011;12783;48.824;8.662;2022-11-20T15:42:03;3.90;;;1.63;;
24650;SDS011;12783;48.824;8.662;2022-11-20T15:44:30;3.30;;;1.30;;
24650;SDS011;12783;48.824;8.662;2022-11-20T15:46:57;5.38;;;2.10;;
24650;SDS011;12783;48.824;8.662;2022-11-20T15:49:23;4.32;;;2.05;;
24650;SDS011;12783;48.824;8.662;2022-11-20T15:51:51;2.72;;;1.48;;
24650;SDS011;12783;48.824;8.662;2022-11-20T15:54:20;5.15;;;1.98;;
24650;SDS011;12783;48.824;8.662;2022-11-20T15:56:48;8.23;;;4.85;;
24650;SDS011;12783;48.824;8.662;2022-11-20T15:59:18;6.88;;;2.40;;
24650;SDS011;12783;48.824;8.662;2022-11-20T16:01:45;5.28;;;2.08;;
24650;SDS011;12783;48.824;8.662;2022-11-20T16:04:13;5.60;;;2.05;;
24650;SDS011;12783;48.824;8.662;2022-11-20T16:06:41;2.75;;;1.60;;
24650;SDS011;12783;48.824;8.662;2022-11-20T16:09:08;3.35;;;1.60;;
24650;SDS011;12783;48.824;8.662;2022-11-20T16:11:38;8.13;;;1.80;;
24650;SDS011;12783;48.824;8.662;2022-11-20T16:14:30;4.93;;;1.67;;
24650;SDS011;12783;48.824;8.662;2022-11-20T16:20:02;5.70;;;2.10;;
24650;SDS011;12783;48.824;8.662;2022-11-20T16:22:29;4.57;;;1.98;;
24650;SDS011;12783;48.824;8.662;2022-11-20T16:24:55;4.38;;;1.90;;
24650;SDS011;12783;48.824;8.662;2022-11-20T16:27:22;5.88;;;2.08;;
24650;SDS011;12783;48.824;8.662;2022-11-20T16:29:49;4.22;;;2.03;;
24650;SDS011;12783;48.824;8.662;2022-11-20T16:32:15;4.80;;;1.80;;
24650;SDS011;12783;48.824;8.662;2022-11-20T16:34:42;3.92;;;1.60;;